createdAt,value
2024-01-12T00:00:41.431Z,87.15
2024-01-12T00:01:50.640Z,86.18
2024-01-12T00:03:00.069Z,87.64
2024-01-12T00:04:09.066Z,87.64
2024-01-12T00:05:18.108Z,87.15
2024-01-12T00:06:27.348Z,90.08
2024-01-12T00:07:36.649Z,86.66
2024-01-12T00:08:45.918Z,90.33
2024-01-12T00:09:54.839Z,90.57
2024-01-12T00:11:04.311Z,89.59
2024-01-12T00:12:13.462Z,90.33
2024-01-12T00:13:21.709Z,88.13
2024-01-12T00:14:30.603Z,89.35
2024-01-12T00:15:39.875Z,90.08
2024-01-12T00:16:49.211Z,90.08
2024-01-12T00:17:58.079Z,89.11
2024-01-12T00:19:07.394Z,90.82
2024-01-12T00:20:16.450Z,90.57
2024-01-12T00:21:25.879Z,90.08
2024-01-12T00:22:34.792Z,90.57
2024-01-12T00:23:43.992Z,91.06
2024-01-12T00:24:53.420Z,89.84
2024-01-12T00:26:02.565Z,92.04
2024-01-12T00:27:11.651Z,91.79
2024-01-12T00:28:19.957Z,91.55
2024-01-12T00:29:28.804Z,93.01
2024-01-12T00:30:37.980Z,90.33
2024-01-12T00:31:47.466Z,90.82
2024-01-12T00:32:56.656Z,91.3
2024-01-12T00:34:05.489Z,91.55
2024-01-12T00:35:14.678Z,92.28
2024-01-12T00:36:24.137Z,93.26
2024-01-12T00:37:33.246Z,90.57
2024-01-12T00:38:42.463Z,92.04
2024-01-12T00:39:51.590Z,93.01
2024-01-12T00:41:00.519Z,92.04
2024-01-12T00:42:10.057Z,92.77
2024-01-12T00:43:18.154Z,91.06
2024-01-12T00:44:27.172Z,92.52
2024-01-12T00:45:36.341Z,92.28
2024-01-12T00:46:45.677Z,91.3
2024-01-12T00:47:54.926Z,91.3
2024-01-12T00:49:03.929Z,92.28
2024-01-12T00:50:13.162Z,90.08
2024-01-12T00:51:22.450Z,91.55
2024-01-12T00:52:31.460Z,92.28
2024-01-12T00:53:40.589Z,94.23
2024-01-12T00:54:49.942Z,92.28
2024-01-12T00:55:59.132Z,93.5
2024-01-12T00:57:08.094Z,93.5
2024-01-12T00:58:16.543Z,92.77
2024-01-12T00:59:25.404Z,92.77
2024-01-12T01:00:34.624Z,92.28
2024-01-12T01:01:43.884Z,94.23
2024-01-12T01:02:53.054Z,92.52
2024-01-12T01:04:02.395Z,94.23
2024-01-12T01:05:11.474Z,94.23
2024-01-12T01:06:20.689Z,95.21
2024-01-12T01:07:29.561Z,94.23
2024-01-12T01:08:38.773Z,93.75
2024-01-12T01:09:47.884Z,93.26
2024-01-12T01:10:57.210Z,91.79
2024-01-12T01:12:06.357Z,90.82
2024-01-12T01:13:14.427Z,90.82
2024-01-12T01:14:23.791Z,91.06
2024-01-12T01:15:32.809Z,89.11
2024-01-12T01:16:42.263Z,88.13
2024-01-12T01:17:51.330Z,86.91
2024-01-12T01:19:00.422Z,86.66
2024-01-12T01:20:09.465Z,85.2
2024-01-12T01:21:18.801Z,83.25
2024-01-12T01:22:27.914Z,80.56
2024-01-12T01:23:37.216Z,80.81
2024-01-12T01:24:46.455Z,79.83
2024-01-12T01:25:55.439Z,77.39
2024-01-12T01:27:04.689Z,78.12
2024-01-12T01:28:12.981Z,77.14
2024-01-12T01:29:21.947Z,73.24
2024-01-12T01:30:31.319Z,73.24
2024-01-12T01:31:40.345Z,75.19
2024-01-12T01:32:49.500Z,75.92
2024-01-12T01:33:58.810Z,76.66
2024-01-12T01:35:07.934Z,77.14
2024-01-12T01:36:17.149Z,76.9
2024-01-12T01:37:26.405Z,77.63
2024-01-12T01:38:35.301Z,79.58
2024-01-12T01:39:44.793Z,81.05
2024-01-12T01:40:53.586Z,82.03
2024-01-12T01:42:03.135Z,83.49
2024-01-12T01:43:11.196Z,86.18
2024-01-12T01:44:20.318Z,88.86
2024-01-12T01:45:29.437Z,88.86
2024-01-12T01:46:38.472Z,89.35
2024-01-12T01:47:47.898Z,90.08
2024-01-12T01:48:57.023Z,92.28
2024-01-12T01:50:06.274Z,92.77
2024-01-12T01:51:15.451Z,93.01
2024-01-12T01:52:24.641Z,93.75
2024-01-12T01:53:33.768Z,94.48
2024-01-12T01:54:42.884Z,90.57
2024-01-12T01:55:52.126Z,90.82
2024-01-12T01:57:01.313Z,91.3
2024-01-12T01:58:09.383Z,91.3
2024-01-12T01:59:18.646Z,91.55
2024-01-12T02:00:27.722Z,94.72
2024-01-12T02:01:36.932Z,92.77
2024-01-12T02:02:46.230Z,94.23
2024-01-12T02:03:54.222Z,95.7
2024-01-12T02:05:03.386Z,95.45
2024-01-12T02:06:12.600Z,92.52
2024-01-12T02:07:21.687Z,94.48
2024-01-12T02:08:30.952Z,91.3
2024-01-12T02:09:39.973Z,91.55
2024-01-12T02:10:49.140Z,92.28
2024-01-12T02:11:58.494Z,90.57
2024-01-12T02:13:07.788Z,90.57
2024-01-12T02:14:16.662Z,93.75
2024-01-12T02:15:25.990Z,92.28
2024-01-12T02:16:35.061Z,95.21
2024-01-12T02:17:44.181Z,90.33
2024-01-12T02:18:52.495Z,92.28
2024-01-12T02:20:01.891Z,93.26
2024-01-12T02:21:10.904Z,92.04
2024-01-12T02:22:19.938Z,91.3
2024-01-12T02:23:29.103Z,93.75
2024-01-12T02:24:38.520Z,92.28
2024-01-12T02:25:47.408Z,93.5
2024-01-12T02:26:56.695Z,95.21
2024-01-12T02:28:05.765Z,94.72
2024-01-12T02:29:14.933Z,93.01
2024-01-12T02:30:24.178Z,93.5
2024-01-12T02:31:33.375Z,93.5
2024-01-12T02:32:42.564Z,93.5
2024-01-12T02:33:50.636Z,93.01
2024-01-12T02:35:00.119Z,93.01
2024-01-12T02:36:09.176Z,91.55
2024-01-12T02:37:18.315Z,92.04
2024-01-12T02:38:27.317Z,87.64
2024-01-12T02:39:36.510Z,88.86
2024-01-12T02:40:45.879Z,82.76
2024-01-12T02:41:55.120Z,82.51
2024-01-12T02:43:04.008Z,80.56
2024-01-12T02:44:13.402Z,79.1
2024-01-12T02:45:22.441Z,78.36
2024-01-12T02:46:31.872Z,77.88
2024-01-12T02:47:40.841Z,76.66
2024-01-12T02:48:49.055Z,79.1
2024-01-12T02:49:58.215Z,78.85
2024-01-12T02:51:07.350Z,80.07
2024-01-12T02:52:16.636Z,80.81
2024-01-12T02:53:25.641Z,79.83
2024-01-12T02:54:34.861Z,80.56
2024-01-12T02:55:44.188Z,77.88
2024-01-12T02:56:53.121Z,83.49
2024-01-12T02:58:02.274Z,80.56
2024-01-12T02:59:11.514Z,79.34
2024-01-12T03:00:20.686Z,81.29
2024-01-12T03:01:29.840Z,79.1
2024-01-12T03:02:39.006Z,81.78
2024-01-12T03:03:47.175Z,83.49
2024-01-12T03:04:56.636Z,83
2024-01-12T03:06:05.758Z,85.44
2024-01-12T03:07:14.685Z,86.18
2024-01-12T03:08:24.039Z,87.64
2024-01-12T03:09:33.253Z,87.64
2024-01-12T03:10:42.569Z,90.33
2024-01-12T03:11:51.417Z,92.04
2024-01-12T03:13:00.730Z,93.01
2024-01-12T03:15:19.202Z,92.77
2024-01-12T03:16:28.401Z,91.79
2024-01-12T03:17:37.250Z,92.52
2024-01-12T03:18:45.712Z,92.04
2024-01-12T03:19:54.621Z,93.99
2024-01-12T03:21:04.144Z,91.55
2024-01-12T03:22:13.289Z,90.82
2024-01-12T03:23:22.429Z,92.28
2024-01-12T03:24:31.637Z,93.01
2024-01-12T03:25:40.905Z,93.01
2024-01-12T03:26:49.936Z,91.79
2024-01-12T03:27:59.190Z,90.82
2024-01-12T03:29:08.332Z,89.35
2024-01-12T03:30:17.619Z,88.37
2024-01-12T03:31:26.651Z,90.82
2024-01-12T03:32:35.935Z,90.57
2024-01-12T03:33:43.956Z,90.82
2024-01-12T03:34:53.184Z,91.3
2024-01-12T03:36:02.370Z,92.04
2024-01-12T03:37:11.546Z,91.3
2024-01-12T03:38:20.731Z,94.48
2024-01-12T03:39:29.553Z,93.75
2024-01-12T03:40:39.060Z,96.43
2024-01-12T03:41:48.262Z,97.9
2024-01-12T03:42:57.457Z,98.14
2024-01-12T03:44:06.272Z,97.9
2024-01-12T03:45:15.735Z,98.63
2024-01-12T03:46:24.915Z,97.65
2024-01-12T03:47:34.172Z,97.9
2024-01-12T03:48:42.337Z,97.9
2024-01-12T03:49:51.478Z,97.9
2024-01-12T03:51:00.341Z,98.14
2024-01-12T03:52:09.791Z,95.94
2024-01-12T03:53:18.902Z,98.63
2024-01-12T03:54:28.154Z,98.38
2024-01-12T03:55:37.366Z,104.49
2024-01-12T03:56:46.177Z,100.09
2024-01-12T03:57:55.648Z,99.6
2024-01-12T03:59:04.921Z,99.12
2024-01-12T04:00:14.026Z,96.92
2024-01-12T04:01:23.301Z,96.19
2024-01-12T04:02:32.401Z,94.72
2024-01-12T04:03:40.571Z,93.5
2024-01-12T04:04:49.824Z,93.75
2024-01-12T04:05:58.875Z,94.97
2024-01-12T04:07:08.029Z,90.82
2024-01-12T04:08:17.325Z,89.59
2024-01-12T04:09:26.505Z,88.37
2024-01-12T04:10:35.467Z,84.71
2024-01-12T04:11:44.833Z,80.81
2024-01-12T04:12:53.923Z,84.47
2024-01-12T04:14:03.093Z,80.56
2024-01-12T04:15:12.086Z,79.1
2024-01-12T04:16:21.282Z,78.12
2024-01-12T04:17:30.576Z,77.39
2024-01-12T04:18:38.856Z,79.83
2024-01-12T04:19:48.004Z,75.19
2024-01-12T04:20:57.147Z,77.14
2024-01-12T04:22:06.304Z,78.61
2024-01-12T04:23:15.461Z,76.66
2024-01-12T04:24:24.649Z,77.14
2024-01-12T04:25:33.594Z,78.36
2024-01-12T04:26:43.041Z,79.83
2024-01-12T04:27:52.142Z,81.05
2024-01-12T04:29:01.399Z,81.78
2024-01-12T04:30:10.571Z,83.25
2024-01-12T04:31:19.725Z,86.18
2024-01-12T04:32:28.910Z,86.18
2024-01-12T04:33:37.120Z,86.91
2024-01-12T04:34:45.929Z,86.42
2024-01-12T04:35:55.321Z,85.2
2024-01-12T04:37:04.588Z,85.44
2024-01-12T04:38:13.649Z,84.96
2024-01-12T04:39:22.931Z,85.44
2024-01-12T04:40:32.174Z,86.91
2024-01-12T04:41:41.280Z,87.64
2024-01-12T04:42:50.152Z,87.4
2024-01-12T04:43:59.643Z,88.62
2024-01-12T04:45:08.549Z,87.4
2024-01-12T04:46:17.916Z,88.62
2024-01-12T04:47:27.206Z,86.18
2024-01-12T04:48:35.395Z,86.91
2024-01-12T04:49:44.582Z,88.86
2024-01-12T04:50:53.384Z,92.28
2024-01-12T04:52:02.953Z,92.04
2024-01-12T04:53:12.062Z,91.3
2024-01-12T04:54:21.213Z,92.77
2024-01-12T04:55:30.453Z,92.28
2024-01-12T04:56:39.540Z,91.55
2024-01-12T04:57:48.731Z,92.77
2024-01-12T04:58:57.573Z,91.79
2024-01-12T05:00:06.945Z,92.04
2024-01-12T05:01:16.340Z,92.28
2024-01-12T05:02:25.286Z,92.04
2024-01-12T05:03:33.638Z,93.01
2024-01-12T05:04:42.820Z,93.26
2024-01-12T05:05:51.653Z,93.01
2024-01-12T05:07:01.109Z,92.77
2024-01-12T05:08:10.233Z,94.48
2024-01-12T05:09:19.570Z,96.19
2024-01-12T05:10:28.644Z,96.19
2024-01-12T05:11:37.803Z,96.19
2024-01-12T05:12:46.903Z,93.99
2024-01-12T05:13:56.022Z,93.75
2024-01-12T05:15:05.383Z,90.82
2024-01-12T05:16:14.445Z,89.59
2024-01-12T05:17:23.680Z,94.23
2024-01-12T05:18:31.906Z,92.77
2024-01-12T05:19:40.889Z,95.7
2024-01-12T05:20:50.100Z,94.48
2024-01-12T05:21:59.373Z,97.41
2024-01-12T05:23:08.562Z,94.23
2024-01-12T05:24:17.842Z,93.5
2024-01-12T05:25:27.009Z,92.28
2024-01-12T05:26:36.105Z,94.23
2024-01-12T05:27:45.250Z,91.55
2024-01-12T05:28:54.465Z,92.28
2024-01-12T05:30:03.439Z,91.3
2024-01-12T05:31:12.868Z,91.79
2024-01-12T05:32:22.002Z,90.82
2024-01-12T05:33:30.012Z,93.01
2024-01-12T05:34:39.186Z,90.82
2024-01-12T05:35:48.386Z,93.01
2024-01-12T05:36:57.457Z,93.75
2024-01-12T05:38:06.858Z,97.41
2024-01-12T05:39:16.027Z,93.5
2024-01-12T05:40:25.250Z,93.99
2024-01-12T05:41:34.288Z,93.26
2024-01-12T05:42:43.580Z,95.45
2024-01-12T05:43:52.691Z,93.01
2024-01-12T05:45:01.566Z,95.45
2024-01-12T05:46:10.996Z,93.5
2024-01-12T05:47:20.329Z,94.97
2024-01-12T05:48:28.377Z,93.01
2024-01-12T05:49:37.493Z,93.26
2024-01-12T05:50:46.445Z,92.77
2024-01-12T05:51:55.817Z,93.75
2024-01-12T05:53:04.793Z,93.99
2024-01-12T05:54:14.235Z,96.19
2024-01-12T05:55:22.473Z,93.01
2024-01-12T05:56:31.616Z,94.97
2024-01-12T05:57:40.919Z,93.75
2024-01-12T05:58:49.771Z,94.48
2024-01-12T05:59:59.097Z,95.45
2024-01-12T06:01:08.387Z,93.99
2024-01-12T06:02:17.559Z,92.04
2024-01-12T06:03:26.642Z,95.21
2024-01-12T06:04:35.876Z,92.77
2024-01-12T06:05:45.112Z,93.01
2024-01-12T06:06:54.244Z,93.5
2024-01-12T06:08:03.258Z,93.5
2024-01-12T06:09:12.256Z,93.26
2024-01-12T06:10:20.700Z,93.75
2024-01-12T06:11:29.876Z,94.72
2024-01-12T06:12:39.027Z,93.01
2024-01-12T06:13:48.314Z,91.06
2024-01-12T06:14:57.400Z,93.01
2024-01-12T06:16:06.646Z,93.75
2024-01-12T06:17:15.809Z,92.04
2024-01-12T06:18:24.901Z,93.75
2024-01-12T06:19:34.130Z,93.5
2024-01-12T06:20:43.226Z,94.72
2024-01-12T06:21:52.459Z,91.55
2024-01-12T06:23:01.678Z,93.26
2024-01-12T06:24:10.831Z,92.28
2024-01-12T06:25:19.012Z,93.5
2024-01-12T06:26:28.180Z,93.5
2024-01-12T06:27:37.276Z,93.01
2024-01-12T06:28:46.526Z,93.01
2024-01-12T06:29:55.721Z,94.23
2024-01-12T06:31:04.567Z,89.35
2024-01-12T06:32:13.982Z,91.55
2024-01-12T06:33:23.139Z,93.75
2024-01-12T06:34:32.371Z,90.08
2024-01-12T06:35:41.312Z,88.37
2024-01-12T06:36:50.789Z,89.35
2024-01-12T06:37:59.851Z,89.59
2024-01-12T06:39:09.142Z,91.06
2024-01-12T06:40:17.210Z,91.3
2024-01-12T06:41:26.336Z,90.82
2024-01-12T06:42:35.663Z,91.06
2024-01-12T06:43:44.840Z,91.3
2024-01-12T06:44:53.930Z,90.82
2024-01-12T06:46:03.211Z,92.28
2024-01-12T06:47:12.247Z,92.77
2024-01-12T06:48:21.368Z,92.77
2024-01-12T06:49:30.645Z,92.28
2024-01-12T06:50:39.921Z,91.79
2024-01-12T06:51:48.745Z,93.01
2024-01-12T06:52:57.992Z,92.28
2024-01-12T06:54:07.345Z,97.9
2024-01-12T06:55:15.532Z,94.23
2024-01-12T06:56:24.780Z,94.97
2024-01-12T06:57:33.861Z,95.21
2024-01-12T06:58:43.013Z,92.28
2024-01-12T06:59:52.140Z,93.26
2024-01-12T07:01:01.086Z,94.48
2024-01-12T07:02:10.469Z,93.01
2024-01-12T07:03:19.678Z,93.75
2024-01-12T07:04:28.891Z,94.97
2024-01-12T07:05:38.093Z,95.7
2024-01-12T07:06:47.161Z,94.97
2024-01-12T07:07:56.388Z,94.72
2024-01-12T07:09:05.639Z,95.45
2024-01-12T07:10:13.665Z,96.92
2024-01-12T07:11:23.060Z,94.48
2024-01-12T07:12:32.058Z,95.45
2024-01-12T07:13:41.117Z,96.43
2024-01-12T07:14:50.184Z,93.75
2024-01-12T07:15:59.376Z,93.5
2024-01-12T07:17:08.530Z,95.94
2024-01-12T07:18:17.704Z,96.19
2024-01-12T07:19:27.170Z,98.14
2024-01-12T07:20:36.306Z,96.19
2024-01-12T07:21:45.478Z,96.92
2024-01-12T07:22:54.600Z,97.65
2024-01-12T07:24:03.813Z,97.16
2024-01-12T07:25:12.106Z,96.92
2024-01-12T07:26:21.247Z,96.19
2024-01-12T07:27:30.421Z,95.94
2024-01-12T07:28:39.537Z,97.16
2024-01-12T07:29:48.767Z,95.45
2024-01-12T07:30:57.814Z,95.7
2024-01-12T07:32:06.801Z,97.41
2024-01-12T07:33:16.406Z,96.92
2024-01-12T07:34:25.453Z,97.16
2024-01-12T07:35:34.495Z,98.63
2024-01-12T07:36:43.496Z,97.9
2024-01-12T07:37:53.002Z,95.21
2024-01-12T07:39:01.983Z,98.38
2024-01-12T07:40:10.030Z,96.67
2024-01-12T07:41:19.479Z,96.43
2024-01-12T07:42:28.614Z,97.41
2024-01-12T07:43:37.940Z,96.43
2024-01-12T07:44:47.193Z,97.9
2024-01-12T07:45:56.098Z,95.45
2024-01-12T07:47:05.360Z,98.87
2024-01-12T07:48:14.531Z,97.41
2024-01-12T07:49:23.695Z,96.92
2024-01-12T07:50:32.942Z,96.19
2024-01-12T07:51:42.066Z,95.7
2024-01-12T07:52:51.226Z,96.67
2024-01-12T07:54:00.486Z,95.94
2024-01-12T07:55:08.601Z,96.92
2024-01-12T07:56:17.771Z,97.41
2024-01-12T07:57:26.957Z,98.87
2024-01-12T07:58:36.020Z,98.38
2024-01-12T07:59:45.098Z,99.6
2024-01-12T08:00:54.490Z,103.27
2024-01-12T08:02:03.637Z,99.36
2024-01-12T08:03:12.824Z,103.27
2024-01-12T08:04:22.018Z,103.02
2024-01-12T08:05:31.160Z,99.6
2024-01-12T08:06:40.325Z,101.31
2024-01-12T08:07:49.344Z,104
2024-01-12T08:08:58.494Z,103.27
2024-01-12T08:10:06.542Z,103.75
2024-01-12T08:11:16.047Z,105.95
2024-01-12T08:12:25.209Z,101.8
2024-01-12T08:13:34.415Z,103.27
2024-01-12T08:14:43.531Z,104
2024-01-12T08:15:52.796Z,101.56
2024-01-12T08:17:01.794Z,102.53
2024-01-12T08:18:11.024Z,99.85
2024-01-12T08:19:20.335Z,100.83
2024-01-12T08:20:29.377Z,101.07
2024-01-12T08:21:38.583Z,96.43
2024-01-12T08:22:47.715Z,96.43
2024-01-12T08:23:56.763Z,96.19
2024-01-12T08:25:05.989Z,92.28
2024-01-12T08:26:14.256Z,94.97
2024-01-12T08:27:23.196Z,95.45
2024-01-12T08:28:32.625Z,93.75
2024-01-12T08:29:41.634Z,93.01
2024-01-12T08:30:50.878Z,89.84
2024-01-12T08:32:00.105Z,88.86
2024-01-12T08:33:09.029Z,90.82
2024-01-12T08:34:18.195Z,88.62
2024-01-12T08:35:27.384Z,90.08
2024-01-12T08:36:36.863Z,90.08
2024-01-12T08:37:46.044Z,90.82
2024-01-12T08:38:55.196Z,93.99
2024-01-12T08:40:04.089Z,93.5
2024-01-12T08:41:12.589Z,94.72
2024-01-12T08:42:21.744Z,94.48
2024-01-12T08:43:30.978Z,93.5
2024-01-12T08:44:40.028Z,93.5
2024-01-12T08:45:49.139Z,93.01
2024-01-12T08:46:58.320Z,92.52
2024-01-12T08:48:07.304Z,92.52
2024-01-12T08:49:16.795Z,94.23
2024-01-12T08:50:25.689Z,94.48
2024-01-12T08:51:35.123Z,95.45
2024-01-12T08:52:44.256Z,96.92
2024-01-12T08:53:53.561Z,94.48
2024-01-12T08:55:02.615Z,95.7
2024-01-12T08:56:10.759Z,96.92
2024-01-12T08:57:19.754Z,94.72
2024-01-12T08:58:29.145Z,98.63
2024-01-12T08:59:38.392Z,97.41
2024-01-12T09:00:47.505Z,103.02
2024-01-12T09:01:56.742Z,101.31
2024-01-12T09:03:05.910Z,102.53
2024-01-12T09:04:15.064Z,102.29
2024-01-12T09:05:24.246Z,102.53
2024-01-12T09:06:33.453Z,104
2024-01-12T09:07:42.570Z,102.78
2024-01-12T09:08:51.717Z,106.44
2024-01-12T09:10:00.919Z,102.78
2024-01-12T09:11:09.088Z,104.98
2024-01-12T09:12:18.317Z,102.53
2024-01-12T09:13:27.499Z,101.8
2024-01-12T09:14:36.629Z,100.09
2024-01-12T09:15:45.778Z,101.31
2024-01-12T09:16:54.881Z,101.31
2024-01-12T09:18:04.291Z,103.51
2024-01-12T09:19:13.329Z,101.8
2024-01-12T09:21:31.701Z,103.51
2024-01-12T09:22:40.833Z,103.02
2024-01-12T09:23:49.826Z,101.07
2024-01-12T09:24:59.045Z,101.07
2024-01-12T09:26:07.424Z,99.36
2024-01-12T09:27:16.519Z,99.85
2024-01-12T09:28:25.489Z,99.12
2024-01-12T09:29:34.771Z,98.63
2024-01-12T09:30:44.229Z,99.85
2024-01-12T09:31:53.351Z,101.8
2024-01-12T09:33:02.466Z,99.12
2024-01-12T09:34:11.326Z,99.85
2024-01-12T09:35:20.577Z,99.6
2024-01-12T09:36:29.658Z,98.63
2024-01-12T09:37:39.206Z,99.12
2024-01-12T09:38:48.312Z,100.34
2024-01-12T09:39:57.427Z,102.29
2024-01-12T09:41:05.383Z,98.63
2024-01-12T09:42:14.826Z,97.16
2024-01-12T09:43:23.714Z,97.41
2024-01-12T09:44:33.128Z,99.36
2024-01-12T09:45:42.288Z,99.36
2024-01-12T09:46:50.249Z,100.34
2024-01-12T09:47:59.724Z,99.85
2024-01-12T09:49:08.868Z,100.58
2024-01-12T09:50:18.067Z,98.87
2024-01-12T09:51:26.951Z,99.6
2024-01-12T09:52:36.210Z,100.34
2024-01-12T09:53:45.303Z,100.58
2024-01-12T09:54:54.544Z,99.85
2024-01-12T09:56:03.632Z,99.36
2024-01-12T09:57:12.882Z,99.12
2024-01-12T09:58:22.131Z,100.09
2024-01-12T09:59:31.429Z,97.9
2024-01-12T10:00:40.705Z,96.43
2024-01-12T10:01:48.806Z,97.9
2024-01-12T10:02:57.868Z,101.8
2024-01-12T10:04:07.002Z,98.38
2024-01-12T10:05:16.273Z,106.44
2024-01-12T10:06:25.500Z,101.07
2024-01-12T10:07:34.826Z,103.27
2024-01-12T10:08:43.795Z,103.51
2024-01-12T10:09:53.077Z,103.75
2024-01-12T10:11:02.055Z,102.29
2024-01-12T10:12:11.399Z,104.98
2024-01-12T10:13:20.576Z,104
2024-01-12T10:14:29.680Z,99.12
2024-01-12T10:15:38.788Z,101.8
2024-01-12T10:16:46.908Z,99.6
2024-01-12T10:17:56.265Z,97.65
2024-01-12T10:19:05.269Z,97.9
2024-01-12T10:20:14.609Z,97.65
2024-01-12T10:21:23.801Z,96.19
2024-01-12T10:22:33.064Z,97.41
2024-01-12T10:23:42.124Z,97.65
2024-01-12T10:24:51.334Z,100.09
2024-01-12T10:26:00.387Z,98.63
2024-01-12T10:27:09.363Z,96.92
2024-01-12T10:28:18.801Z,95.7
2024-01-12T10:29:27.703Z,94.48
2024-01-12T10:30:37.128Z,96.19
2024-01-12T10:31:45.416Z,95.7
2024-01-12T10:32:54.572Z,94.48
2024-01-12T10:34:03.458Z,96.19
2024-01-12T10:35:12.916Z,96.19
2024-01-12T10:36:21.946Z,95.45
2024-01-12T10:37:31.286Z,94.72
2024-01-12T10:38:40.441Z,93.75
2024-01-12T10:39:49.595Z,94.72
2024-01-12T10:40:58.610Z,94.72
2024-01-12T10:42:07.856Z,92.52
2024-01-12T10:43:17.124Z,94.72
2024-01-12T10:44:26.096Z,92.77
2024-01-12T10:45:35.477Z,93.01
2024-01-12T10:46:43.678Z,93.5
2024-01-12T10:47:52.646Z,93.75
2024-01-12T10:49:01.990Z,92.52
2024-01-12T10:50:11.226Z,94.72
2024-01-12T10:51:20.007Z,96.92
2024-01-12T10:52:29.513Z,95.7
2024-01-12T10:53:38.629Z,95.45
2024-01-12T10:54:47.908Z,96.67
2024-01-12T10:55:56.930Z,94.97
2024-01-12T10:57:06.204Z,96.19
2024-01-12T10:58:15.252Z,97.41
2024-01-12T10:59:24.503Z,96.92
2024-01-12T11:00:33.688Z,95.21
2024-01-12T11:01:41.934Z,94.48
2024-01-12T11:02:51.024Z,97.9
2024-01-12T11:04:00.265Z,98.14
2024-01-12T11:05:09.125Z,97.41
2024-01-12T11:06:18.328Z,99.6
2024-01-12T11:07:27.568Z,100.09
2024-01-12T11:08:36.851Z,100.58
2024-01-12T11:09:46.094Z,100.83
2024-01-12T11:10:55.235Z,103.02
2024-01-12T11:12:04.278Z,97.9
2024-01-12T11:13:13.637Z,104
2024-01-12T11:14:22.705Z,103.51
2024-01-12T11:15:31.967Z,104
2024-01-12T11:16:39.990Z,102.53
2024-01-12T11:17:49.258Z,103.27
2024-01-12T11:18:58.379Z,102.53
2024-01-12T11:20:07.601Z,102.78
2024-01-12T11:21:16.550Z,100.58
2024-01-12T11:22:26.035Z,98.87
2024-01-12T11:23:35.211Z,99.12
2024-01-12T11:24:44.173Z,98.38
2024-01-12T11:25:53.516Z,99.6
2024-01-12T11:27:02.668Z,94.97
2024-01-12T11:28:11.834Z,92.52
2024-01-12T11:29:21.056Z,91.79
2024-01-12T11:30:30.203Z,92.04
2024-01-12T11:31:38.220Z,92.77
2024-01-12T11:32:47.618Z,93.5
2024-01-12T11:33:56.662Z,93.26
2024-01-12T11:35:05.883Z,93.75
2024-01-12T11:36:15.000Z,93.99
2024-01-12T11:37:24.393Z,95.45
2024-01-12T11:38:33.423Z,96.19
2024-01-12T11:39:42.441Z,93.5
2024-01-12T11:40:51.640Z,92.28
2024-01-12T11:42:00.769Z,94.72
2024-01-12T11:43:10.149Z,92.28
2024-01-12T11:44:19.365Z,93.5
2024-01-12T11:45:28.384Z,92.52
2024-01-12T11:46:36.793Z,91.3
2024-01-12T11:47:45.576Z,92.04
2024-01-12T11:48:54.757Z,90.08
2024-01-12T11:50:04.162Z,89.84
2024-01-12T11:51:13.469Z,92.77
2024-01-12T11:52:22.604Z,92.28
2024-01-12T11:53:31.731Z,92.52
2024-01-12T11:54:40.796Z,93.01
2024-01-12T11:55:49.973Z,91.3
2024-01-12T11:56:59.338Z,90.82
2024-01-12T11:58:08.423Z,92.04
2024-01-12T11:59:17.648Z,90.82
2024-01-12T12:00:26.775Z,92.28
2024-01-12T12:01:35.028Z,93.75
2024-01-12T12:02:44.100Z,94.48
2024-01-12T12:03:53.353Z,95.45
2024-01-12T12:05:02.408Z,94.23
2024-01-12T12:06:11.507Z,95.94
2024-01-12T12:07:20.545Z,93.01
2024-01-12T12:08:30.029Z,97.41
2024-01-12T12:09:39.239Z,98.38
2024-01-12T12:10:48.045Z,98.38
2024-01-12T12:11:57.328Z,99.6
2024-01-12T12:13:06.684Z,100.09
2024-01-12T12:14:15.858Z,102.29
2024-01-12T12:15:24.980Z,100.58
2024-01-12T12:16:33.008Z,99.12
2024-01-12T12:17:42.303Z,96.92
2024-01-12T12:18:51.402Z,97.9
2024-01-12T12:20:00.545Z,97.9
2024-01-12T12:21:09.839Z,99.6
2024-01-12T12:22:19.050Z,96.92
2024-01-12T12:23:28.306Z,96.43
2024-01-12T12:24:38.084Z,99.6
2024-01-12T12:25:46.431Z,98.87
2024-01-12T12:26:55.521Z,93.99
2024-01-12T12:28:04.666Z,96.19
2024-01-12T12:29:13.995Z,93.75
2024-01-12T12:30:23.015Z,91.3
2024-01-12T12:31:31.261Z,96.19
2024-01-12T12:32:40.372Z,92.28
2024-01-12T12:33:49.767Z,92.52
2024-01-12T12:34:58.738Z,93.99
2024-01-12T12:36:08.197Z,92.77
2024-01-12T12:37:17.194Z,90.08
2024-01-12T12:38:26.482Z,93.99
2024-01-12T12:39:35.722Z,93.99
2024-01-12T12:40:44.887Z,91.55
2024-01-12T12:41:53.773Z,93.5
2024-01-12T12:43:03.156Z,93.01
2024-01-12T12:44:12.326Z,91.55
2024-01-12T12:45:21.371Z,90.57
2024-01-12T12:46:29.687Z,93.5
2024-01-12T12:47:38.876Z,92.28
2024-01-12T12:48:48.229Z,95.45
2024-01-12T12:49:57.163Z,92.28
2024-01-12T12:51:06.499Z,94.48
2024-01-12T12:52:15.339Z,93.01
2024-01-12T12:53:24.514Z,93.5
2024-01-12T12:54:33.800Z,95.45
2024-01-12T12:55:43.152Z,94.72
2024-01-12T12:56:52.256Z,94.72
2024-01-12T12:58:01.212Z,96.19
2024-01-12T12:59:10.386Z,95.21
2024-01-12T13:00:19.900Z,97.9
2024-01-12T13:01:28.185Z,95.94
2024-01-12T13:02:37.107Z,95.45
2024-01-12T13:03:46.325Z,97.16
2024-01-12T13:04:55.539Z,99.85
2024-01-12T13:06:04.574Z,97.16
2024-01-12T13:07:13.902Z,97.41
2024-01-12T13:08:23.056Z,98.38
2024-01-12T13:09:32.243Z,97.16
2024-01-12T13:10:41.516Z,96.92
2024-01-12T13:11:50.545Z,97.65
2024-01-12T13:12:59.802Z,99.6
2024-01-12T13:14:08.908Z,96.92
2024-01-12T13:15:18.030Z,96.92
2024-01-12T13:16:26.344Z,97.41
2024-01-12T13:17:35.338Z,97.16
2024-01-12T13:18:44.511Z,94.48
2024-01-12T13:19:53.519Z,93.5
2024-01-12T13:21:02.750Z,95.94
2024-01-12T13:22:12.140Z,96.19
2024-01-12T13:23:21.310Z,98.63
2024-01-12T13:24:30.380Z,98.14
2024-01-12T13:25:39.567Z,95.21
2024-01-12T13:26:49.024Z,95.45
2024-01-12T13:27:58.002Z,94.97
2024-01-12T13:29:07.084Z,94.97
2024-01-12T13:30:16.328Z,93.01
2024-01-12T13:31:24.422Z,94.97
2024-01-12T13:32:33.738Z,93.01
2024-01-12T13:33:42.882Z,94.23
2024-01-12T13:34:52.038Z,92.52
2024-01-12T13:36:01.240Z,90.57
2024-01-12T13:37:10.127Z,91.55
2024-01-12T13:38:18.620Z,90.82
2024-01-12T13:39:27.732Z,92.52
2024-01-12T13:40:36.805Z,92.77
2024-01-12T13:41:46.113Z,93.99
2024-01-12T13:42:55.277Z,92.28
2024-01-12T13:44:04.195Z,93.99
2024-01-12T13:45:13.559Z,93.75
2024-01-12T13:46:22.794Z,92.28
2024-01-12T13:47:32.074Z,90.82
2024-01-12T13:48:41.174Z,90.57
2024-01-12T13:49:50.146Z,92.52
2024-01-12T13:50:59.404Z,91.06
2024-01-12T13:52:08.757Z,91.55
2024-01-12T13:53:16.820Z,91.55
2024-01-12T13:54:25.975Z,90.08
2024-01-12T13:55:35.176Z,91.3
2024-01-12T13:56:44.434Z,91.3
2024-01-12T13:57:53.547Z,93.75
2024-01-12T13:59:02.812Z,93.01
2024-01-12T14:00:11.635Z,93.26
2024-01-12T14:01:21.070Z,94.23
2024-01-12T14:02:30.172Z,93.75
2024-01-12T14:03:39.407Z,93.5
2024-01-12T14:04:48.623Z,91.79
2024-01-12T14:05:57.783Z,90.57
2024-01-12T14:07:07.011Z,92.28
2024-01-12T14:08:15.172Z,94.23
2024-01-12T14:09:24.178Z,92.28
2024-01-12T14:10:33.506Z,92.28
2024-01-12T14:11:42.689Z,93.75
2024-01-12T14:12:51.941Z,93.99
2024-01-12T14:14:01.089Z,93.01
2024-01-12T14:15:10.216Z,93.75
2024-01-12T14:16:19.413Z,92.28
2024-01-12T14:17:28.249Z,93.01
2024-01-12T14:18:37.751Z,93.75
2024-01-12T14:19:46.742Z,93.01
2024-01-12T14:20:55.972Z,92.28
2024-01-12T14:22:05.267Z,90.33
2024-01-12T14:23:13.288Z,91.55
2024-01-12T14:24:22.304Z,90.57
2024-01-12T14:25:31.802Z,90.33
2024-01-12T14:26:40.653Z,91.06
2024-01-12T14:27:49.849Z,89.35
2024-01-12T14:28:59.291Z,88.62
2024-01-12T14:30:08.170Z,86.91
2024-01-12T14:31:17.510Z,88.86
2024-01-12T14:32:26.789Z,86.91
2024-01-12T14:33:35.987Z,86.18
2024-01-12T14:34:44.853Z,88.37
2024-01-12T14:35:54.153Z,88.37
2024-01-12T14:37:03.494Z,90.08
2024-01-12T14:38:11.734Z,90.08
2024-01-12T14:39:20.883Z,90.08
2024-01-12T14:40:29.736Z,89.84
2024-01-12T14:41:39.251Z,89.11
2024-01-12T14:42:48.465Z,89.11
2024-01-12T14:43:57.449Z,89.35
2024-01-12T14:45:06.518Z,90.82
2024-01-12T14:46:15.702Z,92.28
2024-01-12T14:47:25.055Z,91.55
2024-01-12T14:48:34.066Z,88.62
2024-01-12T14:49:43.468Z,90.82
2024-01-12T14:50:52.475Z,90.82
2024-01-12T14:52:01.496Z,93.5
2024-01-12T14:53:09.704Z,93.01
2024-01-12T14:54:18.880Z,91.55